sensor_id;sensor_type;location;lat;lon;timestamp;P1;durP1;ratioP1;P2;durP2;ratioP2
1258;SDS011;619;51.472;6.628;2022-12-01T00:01:17;25.03;;;18.40;;
1258;SDS011;619;51.472;6.628;2022-12-01T00:03:45;28.37;;;19.47;;
1258;SDS011;619;51.472;6.628;2022-12-01T00:06:12;33.07;;;21.23;;
1258;SDS011;619;51.472;6.628;2022-12-01T00:08:39;34.40;;;20.63;;
1258;SDS011;619;51.472;6.628;2022-12-01T00:11:26;33.83;;;21.30;;
1258;SDS011;619;51.472;6.628;2022-12-01T00:13:54;28.43;;;20.40;;
1258;SDS011;619;51.472;6.628;2022-12-01T00:16:19;32.33;;;20.67;;
1258;SDS011;619;51.472;6.628;2022-12-01T00:18:48;28.03;;;18.27;;
1258;SDS011;619;51.472;6.628;2022-12-01T00:21:15;34.00;;;19.73;;
1258;SDS011;619;51.472;6.628;2022-12-01T00:23:45;37.67;;;20.77;;
1258;SDS011;619;51.472;6.628;2022-12-01T00:26:15;33.47;;;21.50;;
1258;SDS011;619;51.472;6.628;2022-12-01T00:28:41;33.47;;;21.33;;
1258;SDS011;619;51.472;6.628;2022-12-01T00:31:12;34.20;;;21.03;;
1258;SDS011;619;51.472;6.628;2022-12-01T00:33:37;34.20;;;20.93;;
1258;SDS011;619;51.472;6.628;2022-12-01T00:36:03;30.87;;;19.43;;
1258;SDS011;619;51.472;6.628;2022-12-01T00:38:32;33.43;;;21.17;;
1258;SDS011;619;51.472;6.628;2022-12-01T00:41:02;36.00;;;20.80;;
1258;SDS011;619;51.472;6.628;2022-12-01T00:43:35;38.63;;;21.93;;
1258;SDS011;619;51.472;6.628;2022-12-01T00:46:04;37.40;;;22.57;;
1258;SDS011;619;51.472;6.628;2022-12-01T00:48:29;34.77;;;22.20;;
1258;SDS011;619;51.472;6.628;2022-12-01T00:50:57;39.20;;;23.90;;
1258;SDS011;619;51.472;6.628;2022-12-01T00:53:25;39.40;;;23.60;;
1258;SDS011;619;51.472;6.628;2022-12-01T00:55:53;33.13;;;22.30;;
1258;SDS011;619;51.472;6.628;2022-12-01T00:58:19;37.47;;;21.90;;
1258;SDS011;619;51.472;6.628;2022-12-01T01:00:45;41.37;;;24.20;;
1258;SDS011;619;51.472;6.628;2022-12-01T01:03:13;40.47;;;22.20;;
1258;SDS011;619;51.472;6.628;2022-12-01T01:05:40;35.40;;;23.10;;
1258;SDS011;619;51.472;6.628;2022-12-01T01:08:10;38.87;;;22.40;;
1258;SDS011;619;51.472;6.628;2022-12-01T01:10:42;35.67;;;21.43;;
1258;SDS011;619;51.472;6.628;2022-12-01T01:13:10;37.67;;;21.33;;
1258;SDS011;619;51.472;6.628;2022-12-01T01:15:39;37.50;;;24.23;;
1258;SDS011;619;51.472;6.628;2022-12-01T01:18:05;38.63;;;21.57;;
1258;SDS011;619;51.472;6.628;2022-12-01T01:20:33;38.43;;;24.03;;
1258;SDS011;619;51.472;6.628;2022-12-01T01:22:59;34.50;;;21.57;;
1258;SDS011;619;51.472;6.628;2022-12-01T01:25:26;41.07;;;25.07;;
1258;SDS011;619;51.472;6.628;2022-12-01T01:27:52;43.57;;;24.63;;
1258;SDS011;619;51.472;6.628;2022-12-01T01:30:18;43.73;;;24.10;;
1258;SDS011;619;51.472;6.628;2022-12-01T01:32:44;41.83;;;22.80;;
1258;SDS011;619;51.472;6.628;2022-12-01T01:35:09;40.47;;;25.80;;
1258;SDS011;619;51.472;6.628;2022-12-01T01:37:35;38.77;;;25.00;;
1258;SDS011;619;51.472;6.628;2022-12-01T01:40:00;43.20;;;23.57;;
1258;SDS011;619;51.472;6.628;2022-12-01T01:42:28;47.57;;;25.73;;
1258;SDS011;619;51.472;6.628;2022-12-01T01:44:55;49.40;;;24.97;;
1258;SDS011;619;51.472;6.628;2022-12-01T01:49:50;51.17;;;28.87;;
1258;SDS011;619;51.472;6.628;2022-12-01T01:52:20;46.17;;;25.00;;
1258;SDS011;619;51.472;6.628;2022-12-01T01:54:48;45.67;;;23.90;;
1258;SDS011;619;51.472;6.628;2022-12-01T01:57:22;49.00;;;25.60;;
1258;SDS011;619;51.472;6.628;2022-12-01T01:59:54;50.67;;;26.43;;
1258;SDS011;619;51.472;6.628;2022-12-01T02:02:41;51.90;;;26.27;;
1258;SDS011;619;51.472;6.628;2022-12-01T02:05:12;46.77;;;25.00;;
1258;SDS011;619;51.472;6.628;2022-12-01T02:07:44;42.17;;;24.47;;
1258;SDS011;619;51.472;6.628;2022-12-01T02:10:13;55.63;;;27.10;;
1258;SDS011;619;51.472;6.628;2022-12-01T02:23:56;47.13;;;25.17;;
1258;SDS011;619;51.472;6.628;2022-12-01T02:35:01;46.33;;;24.20;;
1258;SDS011;619;51.472;6.628;2022-12-01T02:45:52;39.67;;;23.80;;
1258;SDS011;619;51.472;6.628;2022-12-01T02:48:33;41.93;;;21.90;;
1258;SDS011;619;51.472;6.628;2022-12-01T02:51:06;42.87;;;25.20;;
1258;SDS011;619;51.472;6.628;2022-12-01T02:54:00;42.50;;;25.07;;
1258;SDS011;619;51.472;6.628;2022-12-01T02:56:27;54.20;;;25.17;;
1258;SDS011;619;51.472;6.628;2022-12-01T02:58:55;43.63;;;27.10;;
1258;SDS011;619;51.472;6.628;2022-12-01T03:14:32;51.17;;;28.50;;
1258;SDS011;619;51.472;6.628;2022-12-01T03:17:07;56.27;;;27.53;;
1258;SDS011;619;51.472;6.628;2022-12-01T03:19:40;54.87;;;28.00;;
1258;SDS011;619;51.472;6.628;2022-12-01T03:22:14;54.00;;;28.37;;
1258;SDS011;619;51.472;6.628;2022-12-01T03:24:46;57.07;;;27.97;;
1258;SDS011;619;51.472;6.628;2022-12-01T03:27:18;47.87;;;26.13;;
1258;SDS011;619;51.472;6.628;2022-12-01T03:29:49;44.63;;;23.97;;
1258;SDS011;619;51.472;6.628;2022-12-01T03:39:57;48.80;;;22.80;;
1258;SDS011;619;51.472;6.628;2022-12-01T03:42:29;42.40;;;23.07;;
1258;SDS011;619;51.472;6.628;2022-12-01T03:45:03;31.07;;;20.57;;
1258;SDS011;619;51.472;6.628;2022-12-01T03:47:35;37.30;;;20.87;;
1258;SDS011;619;51.472;6.628;2022-12-01T03:50:07;30.90;;;19.90;;
1258;SDS011;619;51.472;6.628;2022-12-01T03:57:55;33.93;;;19.80;;
1258;SDS011;619;51.472;6.628;2022-12-01T04:00:22;28.73;;;19.13;;
1258;SDS011;619;51.472;6.628;2022-12-01T04:02:59;31.47;;;20.70;;
1258;SDS011;619;51.472;6.628;2022-12-01T04:05:29;32.20;;;20.50;;
1258;SDS011;619;51.472;6.628;2022-12-01T04:07:59;41.17;;;20.93;;
1258;SDS011;619;51.472;6.628;2022-12-01T04:10:25;35.93;;;18.30;;
1258;SDS011;619;51.472;6.628;2022-12-01T04:12:53;29.73;;;19.37;;
1258;SDS011;619;51.472;6.628;2022-12-01T04:15:25;34.97;;;21.70;;
1258;SDS011;619;51.472;6.628;2022-12-01T04:17:52;38.23;;;21.53;;
1258;SDS011;619;51.472;6.628;2022-12-01T04:20:17;40.77;;;20.87;;
1258;SDS011;619;51.472;6.628;2022-12-01T04:22:46;44.30;;;21.43;;
1258;SDS011;619;51.472;6.628;2022-12-01T04:25:14;34.07;;;20.10;;
1258;SDS011;619;51.472;6.628;2022-12-01T04:27:42;32.20;;;19.53;;
1258;SDS011;619;51.472;6.628;2022-12-01T04:30:08;32.23;;;18.70;;
1258;SDS011;619;51.472;6.628;2022-12-01T04:32:39;32.87;;;19.50;;
1258;SDS011;619;51.472;6.628;2022-12-01T04:35:06;40.23;;;20.93;;
1258;SDS011;619;51.472;6.628;2022-12-01T04:37:35;35.83;;;20.80;;
1258;SDS011;619;51.472;6.628;2022-12-01T04:40:04;32.63;;;19.20;;
1258;SDS011;619;51.472;6.628;2022-12-01T04:42:30;35.17;;;20.60;;
1258;SDS011;619;51.472;6.628;2022-12-01T04:45:00;30.83;;;19.87;;
1258;SDS011;619;51.472;6.628;2022-12-01T04:47:29;35.50;;;20.20;;
1258;SDS011;619;51.472;6.628;2022-12-01T04:49:54;39.23;;;21.33;;
1258;SDS011;619;51.472;6.628;2022-12-01T04:52:20;38.60;;;21.37;;
1258;SDS011;619;51.472;6.628;2022-12-01T04:54:48;35.90;;;20.73;;
1258;SDS011;619;51.472;6.628;2022-12-01T04:57:13;37.57;;;21.47;;
1258;SDS011;619;51.472;6.628;2022-12-01T04:59:39;43.03;;;24.00;;
1258;SDS011;619;51.472;6.628;2022-12-01T05:02:04;40.90;;;23.17;;
1258;SDS011;619;51.472;6.628;2022-12-01T05:04:32;39.23;;;22.47;;
1258;SDS011;619;51.472;6.628;2022-12-01T05:07:02;40.93;;;22.40;;
1258;SDS011;619;51.472;6.628;2022-12-01T05:09:30;40.50;;;21.80;;
1258;SDS011;619;51.472;6.628;2022-12-01T05:11:58;40.37;;;22.03;;
1258;SDS011;619;51.472;6.628;2022-12-01T05:14:28;39.27;;;22.40;;
1258;SDS011;619;51.472;6.628;2022-12-01T05:16:53;31.57;;;20.63;;
1258;SDS011;619;51.472;6.628;2022-12-01T05:19:22;33.23;;;20.43;;
1258;SDS011;619;51.472;6.628;2022-12-01T05:22:06;39.57;;;22.80;;
1258;SDS011;619;51.472;6.628;2022-12-01T05:24:34;31.63;;;18.70;;
1258;SDS011;619;51.472;6.628;2022-12-01T05:26:59;34.57;;;19.50;;
1258;SDS011;619;51.472;6.628;2022-12-01T05:29:25;31.00;;;18.20;;
1258;SDS011;619;51.472;6.628;2022-12-01T05:31:51;29.10;;;17.83;;
1258;SDS011;619;51.472;6.628;2022-12-01T05:34:21;26.83;;;18.50;;
1258;SDS011;619;51.472;6.628;2022-12-01T05:36:49;30.43;;;18.27;;
1258;SDS011;619;51.472;6.628;2022-12-01T05:39:14;30.20;;;19.70;;
1258;SDS011;619;51.472;6.628;2022-12-01T05:41:40;28.30;;;18.40;;
1258;SDS011;619;51.472;6.628;2022-12-01T05:44:05;33.33;;;19.63;;
1258;SDS011;619;51.472;6.628;2022-12-01T05:46:31;35.40;;;20.10;;
1258;SDS011;619;51.472;6.628;2022-12-01T05:48:59;36.13;;;20.33;;
1258;SDS011;619;51.472;6.628;2022-12-01T05:51:27;28.53;;;18.27;;
1258;SDS011;619;51.472;6.628;2022-12-01T05:53:57;34.40;;;18.60;;
1258;SDS011;619;51.472;6.628;2022-12-01T05:56:23;29.77;;;19.10;;
1258;SDS011;619;51.472;6.628;2022-12-01T05:58:49;35.00;;;18.47;;
1258;SDS011;619;51.472;6.628;2022-12-01T06:01:17;24.90;;;16.70;;
1258;SDS011;619;51.472;6.628;2022-12-01T06:03:48;29.53;;;17.93;;
1258;SDS011;619;51.472;6.628;2022-12-01T06:06:16;28.63;;;18.60;;
1258;SDS011;619;51.472;6.628;2022-12-01T06:08:46;28.43;;;17.23;;
1258;SDS011;619;51.472;6.628;2022-12-01T06:11:16;24.60;;;16.27;;
1258;SDS011;619;51.472;6.628;2022-12-01T06:13:42;33.60;;;18.43;;
1258;SDS011;619;51.472;6.628;2022-12-01T06:16:14;28.90;;;17.97;;
1258;SDS011;619;51.472;6.628;2022-12-01T06:18:40;27.00;;;17.87;;
1258;SDS011;619;51.472;6.628;2022-12-01T06:21:10;30.37;;;16.80;;
1258;SDS011;619;51.472;6.628;2022-12-01T06:23:36;33.43;;;17.70;;
1258;SDS011;619;51.472;6.628;2022-12-01T06:26:02;28.80;;;17.07;;
1258;SDS011;619;51.472;6.628;2022-12-01T06:28:28;27.10;;;17.50;;
1258;SDS011;619;51.472;6.628;2022-12-01T06:30:54;34.53;;;19.30;;
1258;SDS011;619;51.472;6.628;2022-12-01T06:33:22;30.70;;;18.83;;
1258;SDS011;619;51.472;6.628;2022-12-01T06:35:48;32.83;;;18.93;;
1258;SDS011;619;51.472;6.628;2022-12-01T06:38:20;38.80;;;22.87;;
1258;SDS011;619;51.472;6.628;2022-12-01T06:40:46;35.47;;;20.53;;
1258;SDS011;619;51.472;6.628;2022-12-01T06:43:11;31.20;;;19.10;;
1258;SDS011;619;51.472;6.628;2022-12-01T06:45:39;38.27;;;20.57;;
1258;SDS011;619;51.472;6.628;2022-12-01T06:48:07;37.13;;;20.23;;
1258;SDS011;619;51.472;6.628;2022-12-01T06:50:33;37.30;;;21.07;;
1258;SDS011;619;51.472;6.628;2022-12-01T06:52:59;40.83;;;20.80;;
1258;SDS011;619;51.472;6.628;2022-12-01T06:55:24;40.50;;;23.30;;
1258;SDS011;619;51.472;6.628;2022-12-01T06:57:50;42.13;;;23.63;;
1258;SDS011;619;51.472;6.628;2022-12-01T07:00:15;35.80;;;20.77;;
1258;SDS011;619;51.472;6.628;2022-12-01T07:02:41;47.00;;;24.13;;
1258;SDS011;619;51.472;6.628;2022-12-01T07:05:09;37.63;;;22.80;;
1258;SDS011;619;51.472;6.628;2022-12-01T07:07:37;39.33;;;23.60;;
1258;SDS011;619;51.472;6.628;2022-12-01T07:10:11;41.67;;;23.30;;
1258;SDS011;619;51.472;6.628;2022-12-01T07:12:37;41.40;;;24.30;;
1258;SDS011;619;51.472;6.628;2022-12-01T07:15:04;36.87;;;24.10;;
1258;SDS011;619;51.472;6.628;2022-12-01T07:17:35;43.20;;;24.60;;
1258;SDS011;619;51.472;6.628;2022-12-01T07:20:00;49.37;;;25.83;;
1258;SDS011;619;51.472;6.628;2022-12-01T07:22:31;38.27;;;24.50;;
1258;SDS011;619;51.472;6.628;2022-12-01T07:24:56;52.37;;;25.47;;
1258;SDS011;619;51.472;6.628;2022-12-01T07:27:24;45.93;;;26.67;;
1258;SDS011;619;51.472;6.628;2022-12-01T07:29:53;44.27;;;25.37;;
1258;SDS011;619;51.472;6.628;2022-12-01T07:32:19;45.00;;;25.33;;
1258;SDS011;619;51.472;6.628;2022-12-01T07:34:47;40.37;;;24.97;;
1258;SDS011;619;51.472;6.628;2022-12-01T07:37:12;42.90;;;24.63;;
1258;SDS011;619;51.472;6.628;2022-12-01T07:39:40;47.27;;;25.80;;
1258;SDS011;619;51.472;6.628;2022-12-01T07:42:06;36.23;;;23.43;;
1258;SDS011;619;51.472;6.628;2022-12-01T07:44:32;33.33;;;22.37;;
1258;SDS011;619;51.472;6.628;2022-12-01T07:46:57;39.63;;;23.57;;
1258;SDS011;619;51.472;6.628;2022-12-01T07:49:25;39.77;;;22.27;;
1258;SDS011;619;51.472;6.628;2022-12-01T07:51:53;42.43;;;24.67;;
1258;SDS011;619;51.472;6.628;2022-12-01T07:54:21;37.43;;;23.07;;
1258;SDS011;619;51.472;6.628;2022-12-01T07:56:49;38.50;;;22.73;;
1258;SDS011;619;51.472;6.628;2022-12-01T07:59:14;38.53;;;23.50;;
1258;SDS011;619;51.472;6.628;2022-12-01T08:01:40;38.57;;;24.10;;
1258;SDS011;619;51.472;6.628;2022-12-01T08:04:06;46.70;;;23.60;;
1258;SDS011;619;51.472;6.628;2022-12-01T08:06:32;36.33;;;23.83;;
1258;SDS011;619;51.472;6.628;2022-12-01T08:08:59;35.73;;;23.10;;
1258;SDS011;619;51.472;6.628;2022-12-01T08:11:27;43.33;;;22.93;;
1258;SDS011;619;51.472;6.628;2022-12-01T08:13:55;41.77;;;22.50;;
1258;SDS011;619;51.472;6.628;2022-12-01T08:16:21;45.90;;;23.80;;
1258;SDS011;619;51.472;6.628;2022-12-01T08:18:50;33.90;;;21.77;;
1258;SDS011;619;51.472;6.628;2022-12-01T08:21:17;42.27;;;22.97;;
1258;SDS011;619;51.472;6.628;2022-12-01T08:23:44;42.03;;;23.60;;
1258;SDS011;619;51.472;6.628;2022-12-01T08:26:11;39.20;;;23.10;;
1258;SDS011;619;51.472;6.628;2022-12-01T08:28:39;33.90;;;22.20;;
1258;SDS011;619;51.472;6.628;2022-12-01T08:31:18;36.27;;;21.70;;
1258;SDS011;619;51.472;6.628;2022-12-01T08:33:45;41.00;;;22.73;;
1258;SDS011;619;51.472;6.628;2022-12-01T08:36:14;38.73;;;23.43;;
1258;SDS011;619;51.472;6.628;2022-12-01T08:38:41;40.63;;;23.00;;
1258;SDS011;619;51.472;6.628;2022-12-01T08:41:11;39.47;;;23.73;;
1258;SDS011;619;51.472;6.628;2022-12-01T08:43:37;39.70;;;23.23;;
1258;SDS011;619;51.472;6.628;2022-12-01T08:46:08;40.40;;;22.40;;
1258;SDS011;619;51.472;6.628;2022-12-01T08:48:34;42.63;;;24.20;;
1258;SDS011;619;51.472;6.628;2022-12-01T08:51:03;46.80;;;26.27;;
1258;SDS011;619;51.472;6.628;2022-12-01T08:53:31;38.30;;;24.00;;
1258;SDS011;619;51.472;6.628;2022-12-01T08:56:02;41.20;;;23.97;;
1258;SDS011;619;51.472;6.628;2022-12-01T08:58:32;43.50;;;24.40;;
1258;SDS011;619;51.472;6.628;2022-12-01T09:01:05;34.90;;;24.70;;
1258;SDS011;619;51.472;6.628;2022-12-01T09:03:35;42.03;;;23.67;;
1258;SDS011;619;51.472;6.628;2022-12-01T09:06:06;38.83;;;24.03;;
1258;SDS011;619;51.472;6.628;2022-12-01T09:08:36;41.57;;;24.20;;
1258;SDS011;619;51.472;6.628;2022-12-01T09:11:06;44.67;;;24.17;;
1258;SDS011;619;51.472;6.628;2022-12-01T09:13:35;44.13;;;25.63;;
1258;SDS011;619;51.472;6.628;2022-12-01T09:16:08;47.70;;;26.33;;
1258;SDS011;619;51.472;6.628;2022-12-01T09:18:35;41.93;;;25.40;;
1258;SDS011;619;51.472;6.628;2022-12-01T09:23:46;37.53;;;24.40;;
1258;SDS011;619;51.472;6.628;2022-12-01T09:26:12;50.57;;;26.43;;
1258;SDS011;619;51.472;6.628;2022-12-01T09:28:42;39.43;;;25.73;;
1258;SDS011;619;51.472;6.628;2022-12-01T09:31:09;39.30;;;24.13;;
1258;SDS011;619;51.472;6.628;2022-12-01T09:33:36;44.80;;;24.30;;
1258;SDS011;619;51.472;6.628;2022-12-01T09:36:02;41.13;;;25.00;;
1258;SDS011;619;51.472;6.628;2022-12-01T09:38:32;41.33;;;24.50;;
1258;SDS011;619;51.472;6.628;2022-12-01T09:40:59;42.13;;;25.27;;
1258;SDS011;619;51.472;6.628;2022-12-01T09:43:31;39.97;;;23.07;;
1258;SDS011;619;51.472;6.628;2022-12-01T09:46:05;44.97;;;24.80;;
1258;SDS011;619;51.472;6.628;2022-12-01T09:48:42;40.80;;;22.37;;
1258;SDS011;619;51.472;6.628;2022-12-01T09:51:16;34.53;;;22.07;;
1258;SDS011;619;51.472;6.628;2022-12-01T09:53:43;37.80;;;23.30;;
1258;SDS011;619;51.472;6.628;2022-12-01T09:56:16;37.53;;;22.10;;
1258;SDS011;619;51.472;6.628;2022-12-01T09:58:45;33.83;;;21.50;;
1258;SDS011;619;51.472;6.628;2022-12-01T10:01:16;36.80;;;23.23;;
1258;SDS011;619;51.472;6.628;2022-12-01T10:03:47;34.57;;;21.23;;
1258;SDS011;619;51.472;6.628;2022-12-01T10:06:19;38.73;;;21.90;;
1258;SDS011;619;51.472;6.628;2022-12-01T10:09:13;36.47;;;21.10;;
1258;SDS011;619;51.472;6.628;2022-12-01T10:11:48;32.53;;;20.03;;
1258;SDS011;619;51.472;6.628;2022-12-01T10:14:18;33.57;;;19.67;;
1258;SDS011;619;51.472;6.628;2022-12-01T10:22:11;28.50;;;19.93;;
1258;SDS011;619;51.472;6.628;2022-12-01T10:25:00;33.93;;;21.30;;
1258;SDS011;619;51.472;6.628;2022-12-01T10:30:34;31.10;;;19.07;;
1258;SDS011;619;51.472;6.628;2022-12-01T10:33:13;33.67;;;20.50;;
1258;SDS011;619;51.472;6.628;2022-12-01T10:35:57;26.97;;;20.33;;
1258;SDS011;619;51.472;6.628;2022-12-01T10:38:27;26.10;;;19.37;;
1258;SDS011;619;51.472;6.628;2022-12-01T10:40:58;30.50;;;19.50;;
1258;SDS011;619;51.472;6.628;2022-12-01T10:43:41;33.10;;;20.67;;
1258;SDS011;619;51.472;6.628;2022-12-01T10:46:18;28.30;;;20.57;;
1258;SDS011;619;51.472;6.628;2022-12-01T10:48:56;29.03;;;17.97;;
1258;SDS011;619;51.472;6.628;2022-12-01T10:51:26;30.80;;;19.70;;
1258;SDS011;619;51.472;6.628;2022-12-01T10:54:07;34.13;;;22.63;;
1258;SDS011;619;51.472;6.628;2022-12-01T10:56:37;33.63;;;20.90;;
1258;SDS011;619;51.472;6.628;2022-12-01T11:01:59;34.70;;;21.80;;
1258;SDS011;619;51.472;6.628;2022-12-01T11:07:28;30.83;;;20.13;;
1258;SDS011;619;51.472;6.628;2022-12-01T11:12:54;31.60;;;21.20;;
1258;SDS011;619;51.472;6.628;2022-12-01T11:18:05;30.80;;;21.73;;
1258;SDS011;619;51.472;6.628;2022-12-01T11:21:03;35.10;;;20.20;;
1258;SDS011;619;51.472;6.628;2022-12-01T11:23:36;30.20;;;20.07;;
1258;SDS011;619;51.472;6.628;2022-12-01T11:34:18;32.37;;;19.40;;
1258;SDS011;619;51.472;6.628;2022-12-01T11:36:50;33.03;;;21.87;;
1258;SDS011;619;51.472;6.628;2022-12-01T11:39:22;32.83;;;21.10;;
1258;SDS011;619;51.472;6.628;2022-12-01T11:41:53;33.60;;;21.80;;
1258;SDS011;619;51.472;6.628;2022-12-01T11:44:22;32.53;;;20.67;;
1258;SDS011;619;51.472;6.628;2022-12-01T11:46:48;32.80;;;20.43;;
1258;SDS011;619;51.472;6.628;2022-12-01T11:49:18;32.57;;;22.07;;
1258;SDS011;619;51.472;6.628;2022-12-01T11:51:47;33.77;;;21.03;;
1258;SDS011;619;51.472;6.628;2022-12-01T11:56:46;32.50;;;20.57;;
1258;SDS011;619;51.472;6.628;2022-12-01T11:59:26;31.40;;;21.07;;
1258;SDS011;619;51.472;6.628;2022-12-01T12:24:44;34.40;;;20.30;;
1258;SDS011;619;51.472;6.628;2022-12-01T12:30:20;32.67;;;21.97;;
1258;SDS011;619;51.472;6.628;2022-12-01T12:44:06;32.57;;;19.13;;
1258;SDS011;619;51.472;6.628;2022-12-01T12:54:42;30.20;;;19.80;;
1258;SDS011;619;51.472;6.628;2022-12-01T13:02:30;34.43;;;21.23;;
1258;SDS011;619;51.472;6.628;2022-12-01T13:05:20;30.53;;;18.90;;
1258;SDS011;619;51.472;6.628;2022-12-01T13:08:05;37.07;;;21.40;;
1258;SDS011;619;51.472;6.628;2022-12-01T13:13:18;34.60;;;21.47;;
1258;SDS011;619;51.472;6.628;2022-12-01T13:16:04;34.10;;;21.07;;
1258;SDS011;619;51.472;6.628;2022-12-01T13:18:40;37.10;;;22.20;;
1258;SDS011;619;51.472;6.628;2022-12-01T13:21:12;38.00;;;23.40;;
1258;SDS011;619;51.472;6.628;2022-12-01T13:23:41;35.63;;;21.60;;
1258;SDS011;619;51.472;6.628;2022-12-01T13:26:08;41.87;;;23.77;;
1258;SDS011;619;51.472;6.628;2022-12-01T13:28:41;30.50;;;22.10;;
1258;SDS011;619;51.472;6.628;2022-12-01T13:31:14;36.60;;;22.87;;
1258;SDS011;619;51.472;6.628;2022-12-01T13:33:59;41.00;;;26.20;;
1258;SDS011;619;51.472;6.628;2022-12-01T13:36:27;36.20;;;22.13;;
1258;SDS011;619;51.472;6.628;2022-12-01T13:41:42;32.83;;;22.90;;
1258;SDS011;619;51.472;6.628;2022-12-01T13:44:19;29.87;;;21.30;;
1258;SDS011;619;51.472;6.628;2022-12-01T13:57:33;36.13;;;24.30;;
1258;SDS011;619;51.472;6.628;2022-12-01T14:08:30;38.47;;;25.13;;
1258;SDS011;619;51.472;6.628;2022-12-01T14:16:22;41.60;;;24.87;;
1258;SDS011;619;51.472;6.628;2022-12-01T14:21:41;37.40;;;24.77;;
1258;SDS011;619;51.472;6.628;2022-12-01T14:24:20;41.73;;;25.70;;
1258;SDS011;619;51.472;6.628;2022-12-01T14:26:48;36.60;;;24.07;;
1258;SDS011;619;51.472;6.628;2022-12-01T14:34:21;43.60;;;26.10;;
1258;SDS011;619;51.472;6.628;2022-12-01T14:39:27;39.07;;;25.73;;
1258;SDS011;619;51.472;6.628;2022-12-01T14:44:58;39.17;;;25.33;;
1258;SDS011;619;51.472;6.628;2022-12-01T14:47:41;43.20;;;28.13;;
1258;SDS011;619;51.472;6.628;2022-12-01T14:50:18;41.00;;;27.60;;
1258;SDS011;619;51.472;6.628;2022-12-01T14:52:46;41.50;;;27.73;;
1258;SDS011;619;51.472;6.628;2022-12-01T14:55:18;43.30;;;29.00;;
1258;SDS011;619;51.472;6.628;2022-12-01T14:58:04;46.73;;;30.30;;
1258;SDS011;619;51.472;6.628;2022-12-01T15:00:54;50.50;;;30.90;;
1258;SDS011;619;51.472;6.628;2022-12-01T15:03:20;49.50;;;31.80;;
1258;SDS011;619;51.472;6.628;2022-12-01T15:05:47;47.40;;;31.20;;
1258;SDS011;619;51.472;6.628;2022-12-01T15:08:18;42.10;;;28.57;;
1258;SDS011;619;51.472;6.628;2022-12-01T15:11:00;48.20;;;31.10;;
1258;SDS011;619;51.472;6.628;2022-12-01T15:13:28;41.13;;;30.70;;
1258;SDS011;619;51.472;6.628;2022-12-01T15:16:12;42.00;;;28.77;;
1258;SDS011;619;51.472;6.628;2022-12-01T15:18:42;46.37;;;30.50;;
1258;SDS011;619;51.472;6.628;2022-12-01T15:21:27;52.43;;;30.07;;
1258;SDS011;619;51.472;6.628;2022-12-01T15:26:44;45.70;;;31.13;;
1258;SDS011;619;51.472;6.628;2022-12-01T15:31:46;49.17;;;32.40;;
1258;SDS011;619;51.472;6.628;2022-12-01T15:34:14;54.37;;;33.70;;
1258;SDS011;619;51.472;6.628;2022-12-01T15:36:45;48.27;;;31.47;;
1258;SDS011;619;51.472;6.628;2022-12-01T15:39:16;52.90;;;33.60;;
1258;SDS011;619;51.472;6.628;2022-12-01T15:41:44;58.93;;;34.60;;
1258;SDS011;619;51.472;6.628;2022-12-01T15:44:18;56.60;;;35.00;;
1258;SDS011;619;51.472;6.628;2022-12-01T15:46:49;51.37;;;33.20;;
1258;SDS011;619;51.472;6.628;2022-12-01T15:49:16;52.97;;;35.13;;
1258;SDS011;619;51.472;6.628;2022-12-01T15:52:10;49.13;;;34.80;;
1258;SDS011;619;51.472;6.628;2022-12-01T15:54:40;51.17;;;34.23;;
1258;SDS011;619;51.472;6.628;2022-12-01T15:57:14;51.93;;;34.20;;
1258;SDS011;619;51.472;6.628;2022-12-01T15:59:45;48.87;;;33.53;;
1258;SDS011;619;51.472;6.628;2022-12-01T16:04:47;51.40;;;37.40;;
1258;SDS011;619;51.472;6.628;2022-12-01T16:07:13;55.83;;;36.20;;
1258;SDS011;619;51.472;6.628;2022-12-01T16:09:53;49.20;;;33.73;;
1258;SDS011;619;51.472;6.628;2022-12-01T16:12:28;53.90;;;36.20;;
1258;SDS011;619;51.472;6.628;2022-12-01T16:17:38;56.97;;;36.03;;
1258;SDS011;619;51.472;6.628;2022-12-01T16:23:03;52.83;;;34.17;;
1258;SDS011;619;51.472;6.628;2022-12-01T16:25:37;55.07;;;37.37;;
1258;SDS011;619;51.472;6.628;2022-12-01T16:28:14;61.33;;;35.33;;
1258;SDS011;619;51.472;6.628;2022-12-01T16:30:45;51.03;;;34.37;;
1258;SDS011;619;51.472;6.628;2022-12-01T16:33:18;55.10;;;37.67;;
1258;SDS011;619;51.472;6.628;2022-12-01T16:35:49;50.23;;;34.60;;
1258;SDS011;619;51.472;6.628;2022-12-01T16:38:21;50.10;;;35.43;;
1258;SDS011;619;51.472;6.628;2022-12-01T16:40:52;58.43;;;38.70;;
1258;SDS011;619;51.472;6.628;2022-12-01T16:43:23;56.77;;;35.23;;
1258;SDS011;619;51.472;6.628;2022-12-01T16:45:50;51.13;;;33.53;;
1258;SDS011;619;51.472;6.628;2022-12-01T16:48:29;53.80;;;36.27;;
1258;SDS011;619;51.472;6.628;2022-12-01T16:50:58;57.37;;;36.53;;
1258;SDS011;619;51.472;6.628;2022-12-01T16:53:26;51.03;;;35.43;;
1258;SDS011;619;51.472;6.628;2022-12-01T16:55:53;50.20;;;35.37;;
1258;SDS011;619;51.472;6.628;2022-12-01T16:58:26;52.67;;;36.53;;
1258;SDS011;619;51.472;6.628;2022-12-01T17:00:51;51.20;;;35.47;;
1258;SDS011;619;51.472;6.628;2022-12-01T17:03:25;52.80;;;36.20;;
1258;SDS011;619;51.472;6.628;2022-12-01T17:05:54;54.00;;;35.90;;
1258;SDS011;619;51.472;6.628;2022-12-01T17:08:27;52.87;;;34.37;;
1258;SDS011;619;51.472;6.628;2022-12-01T17:10:57;50.93;;;35.43;;
1258;SDS011;619;51.472;6.628;2022-12-01T17:13:22;59.20;;;39.00;;
1258;SDS011;619;51.472;6.628;2022-12-01T17:15:51;55.00;;;40.03;;
1258;SDS011;619;51.472;6.628;2022-12-01T17:18:20;58.77;;;38.13;;
1258;SDS011;619;51.472;6.628;2022-12-01T17:23:23;53.93;;;38.23;;
1258;SDS011;619;51.472;6.628;2022-12-01T17:25:48;50.47;;;33.60;;
1258;SDS011;619;51.472;6.628;2022-12-01T17:28:16;63.47;;;39.57;;
1258;SDS011;619;51.472;6.628;2022-12-01T17:30:42;54.97;;;38.20;;
1258;SDS011;619;51.472;6.628;2022-12-01T17:33:12;57.43;;;38.60;;
1258;SDS011;619;51.472;6.628;2022-12-01T17:35:38;55.10;;;37.97;;
1258;SDS011;619;51.472;6.628;2022-12-01T17:38:04;57.50;;;40.63;;
1258;SDS011;619;51.472;6.628;2022-12-01T17:40:32;57.73;;;39.27;;
1258;SDS011;619;51.472;6.628;2022-12-01T17:43:00;61.20;;;38.63;;
1258;SDS011;619;51.472;6.628;2022-12-01T17:45:26;57.27;;;39.00;;
1258;SDS011;619;51.472;6.628;2022-12-01T17:47:52;57.70;;;37.47;;
1258;SDS011;619;51.472;6.628;2022-12-01T17:50:18;71.77;;;45.87;;
1258;SDS011;619;51.472;6.628;2022-12-01T17:52:44;52.70;;;37.70;;
1258;SDS011;619;51.472;6.628;2022-12-01T17:55:12;58.27;;;40.90;;
1258;SDS011;619;51.472;6.628;2022-12-01T17:57:37;53.80;;;38.50;;
1258;SDS011;619;51.472;6.628;2022-12-01T18:00:03;56.17;;;38.40;;
1258;SDS011;619;51.472;6.628;2022-12-01T18:02:34;61.73;;;38.93;;
1258;SDS011;619;51.472;6.628;2022-12-01T18:05:00;66.10;;;40.77;;
1258;SDS011;619;51.472;6.628;2022-12-01T18:07:26;60.30;;;40.87;;
1258;SDS011;619;51.472;6.628;2022-12-01T18:09:51;61.83;;;40.10;;
1258;SDS011;619;51.472;6.628;2022-12-01T18:12:17;57.67;;;39.30;;
1258;SDS011;619;51.472;6.628;2022-12-01T18:14:42;60.13;;;41.50;;
1258;SDS011;619;51.472;6.628;2022-12-01T18:17:11;55.73;;;36.90;;
1258;SDS011;619;51.472;6.628;2022-12-01T18:19:39;54.90;;;37.60;;
1258;SDS011;619;51.472;6.628;2022-12-01T18:22:07;53.10;;;35.93;;
1258;SDS011;619;51.472;6.628;2022-12-01T18:24:35;51.40;;;38.10;;
1258;SDS011;619;51.472;6.628;2022-12-01T18:27:00;54.83;;;39.23;;
1258;SDS011;619;51.472;6.628;2022-12-01T18:29:26;56.00;;;39.00;;
1258;SDS011;619;51.472;6.628;2022-12-01T18:31:56;66.10;;;41.90;;
1258;SDS011;619;51.472;6.628;2022-12-01T18:34:25;57.70;;;40.73;;
1258;SDS011;619;51.472;6.628;2022-12-01T18:36:53;50.13;;;35.50;;